Time;durP1;ratioP1;P1;durP2;ratioP2;P2;SDS_P1;SDS_P2;PMS_P1;PMS_P2;Temp;Humidity;BMP_temperature;BMP_pressure;BME280_temperature;BME280_humidity;BME280_pressure;Samples;Min_cycle;Max_cycle;Signal;HPM_P1;HPM_P2
2021/09/25 00:02:04;;;;;;;16.45;3.85;;;;;;;;;;5029628;28;20099;-57
2021/09/25 00:04:30;;;;;;;10.02;3.85;;;;;;;;;;5029815;28;20041;-57
2021/09/25 00:06:57;;;;;;;11.50;4.53;;;;;;;;;;5029846;28;20378;-58
2021/09/25 00:09:23;;;;;;;10.95;3.47;;;;;;;;;;5031298;28;20041;-57
2021/09/25 00:11:49;;;;;;;11.35;3.55;;;;;;;;;;5030573;28;20073;-57
2021/09/25 00:14:15;;;;;;;13.88;3.30;;;;;;;;;;5029719;28;20201;-58
2021/09/25 00:16:42;;;;;;;14.13;3.67;;;;;;;;;;5029599;28;20411;-58
2021/09/25 00:19:08;;;;;;;11.27;3.88;;;;;;;;;;5031152;28;20136;-57
2021/09/25 00:21:35;;;;;;;10.25;3.05;;;;;;;;;;5031831;28;20049;-57
2021/09/25 00:24:01;;;;;;;17.70;3.83;;;;;;;;;;5030938;28;20045;-57
2021/09/25 00:26:27;;;;;;;16.02;4.18;;;;;;;;;;5029532;28;20495;-57
2021/09/25 00:28:55;;;;;;;8.35;3.10;;;;;;;;;;5029254;28;20042;-57
2021/09/25 00:31:22;;;;;;;12.10;3.50;;;;;;;;;;5029264;28;20487;-58
2021/09/25 00:33:48;;;;;;;17.05;4.38;;;;;;;;;;5029720;28;20073;-57
2021/09/25 00:36:14;;;;;;;13.25;3.67;;;;;;;;;;5032477;28;20491;-58
2021/09/25 00:38:40;;;;;;;11.95;2.92;;;;;;;;;;5028501;28;20041;-57
2021/09/25 00:41:07;;;;;;;7.18;3.50;;;;;;;;;;5028983;28;20041;-57
2021/09/25 00:43:33;;;;;;;10.20;3.53;;;;;;;;;;5029014;28;20072;-57
2021/09/25 00:46:00;;;;;;;10.48;3.30;;;;;;;;;;5029206;28;20050;-57
2021/09/25 00:48:27;;;;;;;9.98;3.53;;;;;;;;;;5031519;28;20131;-58
2021/09/25 00:50:53;;;;;;;11.73;3.67;;;;;;;;;;5031527;28;20037;-57
2021/09/25 00:53:19;;;;;;;16.52;3.88;;;;;;;;;;5028136;28;20056;-57
2021/09/25 00:55:46;;;;;;;7.97;3.13;;;;;;;;;;5029157;28;20049;-58
2021/09/25 00:58:13;;;;;;;11.10;3.38;;;;;;;;;;5029149;28;20164;-58
2021/09/25 01:00:39;;;;;;;10.50;3.78;;;;;;;;;;5030573;28;20049;-57
2021/09/25 01:03:05;;;;;;;9.82;4.07;;;;;;;;;;5031223;28;20116;-58
2021/09/25 01:05:32;;;;;;;8.43;3.72;;;;;;;;;;5028768;28;20049;-57
2021/09/25 01:07:59;;;;;;;8.25;3.30;;;;;;;;;;5028870;28;20069;-58
2021/09/25 01:10:26;;;;;;;9.77;3.20;;;;;;;;;;5028809;28;20537;-58
2021/09/25 01:12:52;;;;;;;11.52;3.47;;;;;;;;;;5028815;28;20050;-58
2021/09/25 01:15:20;;;;;;;8.27;3.50;;;;;;;;;;5032575;28;20049;-57
2021/09/25 01:17:46;;;;;;;14.50;4.00;;;;;;;;;;5030746;28;20523;-58
2021/09/25 01:20:13;;;;;;;16.15;3.70;;;;;;;;;;5028233;28;20458;-57
2021/09/25 01:22:39;;;;;;;8.85;3.97;;;;;;;;;;5028797;28;20049;-58
2021/09/25 01:25:07;;;;;;;5.70;2.95;;;;;;;;;;5028921;28;20116;-58
2021/09/25 01:27:35;;;;;;;13.50;3.90;;;;;;;;;;5029942;28;20049;-57
2021/09/25 01:30:02;;;;;;;13.80;3.28;;;;;;;;;;5030361;28;20124;-58
2021/09/25 01:32:28;;;;;;;5.95;3.22;;;;;;;;;;5028743;28;20526;-58
2021/09/25 01:34:54;;;;;;;10.43;4.30;;;;;;;;;;5028491;28;20480;-58
2021/09/25 01:37:21;;;;;;;11.45;3.67;;;;;;;;;;5028799;28;20539;-58
2021/09/25 01:39:47;;;;;;;7.13;3.60;;;;;;;;;;5029235;28;20065;-58
2021/09/25 01:42:13;;;;;;;21.05;4.22;;;;;;;;;;5031927;28;20045;-58
2021/09/25 01:44:40;;;;;;;6.55;3.00;;;;;;;;;;5028285;28;20518;-57
2021/09/25 01:47:06;;;;;;;5.63;3.03;;;;;;;;;;5028651;28;20446;-58
2021/09/25 01:49:33;;;;;;;9.25;4.32;;;;;;;;;;5028233;28;20054;-57
2021/09/25 01:51:59;;;;;;;7.40;3.20;;;;;;;;;;5028568;28;20385;-58
2021/09/25 01:54:25;;;;;;;9.13;3.83;;;;;;;;;;5031321;28;20081;-58
2021/09/25 01:56:52;;;;;;;8.57;3.80;;;;;;;;;;5029501;28;20069;-58
2021/09/25 01:59:18;;;;;;;7.13;3.45;;;;;;;;;;5028380;28;20497;-58
2021/09/25 02:01:44;;;;;;;9.23;3.17;;;;;;;;;;5028417;28;20053;-58
2021/09/25 02:04:10;;;;;;;12.00;3.42;;;;;;;;;;5028862;28;20196;-58
2021/09/25 02:06:37;;;;;;;9.07;3.50;;;;;;;;;;5034187;28;20500;-57
2021/09/25 02:09:03;;;;;;;8.43;3.15;;;;;;;;;;5033866;28;20506;-58
2021/09/25 02:11:29;;;;;;;9.50;3.20;;;;;;;;;;5031655;28;20049;-58
2021/09/25 02:13:56;;;;;;;8.27;3.47;;;;;;;;;;5031984;28;20056;-58
2021/09/25 02:16:22;;;;;;;9.52;4.70;;;;;;;;;;5031907;28;20483;-58
2021/09/25 02:18:48;;;;;;;8.70;3.83;;;;;;;;;;5031973;28;20061;-58
2021/09/25 02:21:14;;;;;;;9.07;3.50;;;;;;;;;;5035156;28;20046;-58
2021/09/25 02:23:41;;;;;;;11.57;4.00;;;;;;;;;;5031659;28;20133;-58
2021/09/25 02:26:08;;;;;;;9.20;3.80;;;;;;;;;;5033362;28;20049;-58
2021/09/25 02:28:34;;;;;;;8.80;3.17;;;;;;;;;;5031701;28;20044;-58
2021/09/25 02:31:01;;;;;;;10.93;3.00;;;;;;;;;;5031570;28;20057;-58
2021/09/25 02:33:27;;;;;;;6.53;3.17;;;;;;;;;;5033815;28;20139;-58
2021/09/25 02:35:54;;;;;;;6.13;3.50;;;;;;;;;;5034219;28;20057;-58
2021/09/25 02:38:21;;;;;;;8.13;4.03;;;;;;;;;;5031246;28;20065;-58
2021/09/25 02:40:47;;;;;;;6.55;4.03;;;;;;;;;;5031265;28;20436;-58
2021/09/25 02:43:13;;;;;;;10.20;3.35;;;;;;;;;;5031400;28;20388;-58
2021/09/25 02:45:40;;;;;;;6.38;4.07;;;;;;;;;;5032928;28;20073;-58
2021/09/25 02:48:06;;;;;;;7.50;4.00;;;;;;;;;;5032154;28;20073;-58
2021/09/25 02:50:33;;;;;;;6.38;3.22;;;;;;;;;;5031453;28;20080;-58
2021/09/25 02:52:59;;;;;;;15.20;4.10;;;;;;;;;;5031122;28;20759;-58
2021/09/25 02:55:25;;;;;;;8.98;3.50;;;;;;;;;;5031107;28;20042;-58
2021/09/25 02:57:52;;;;;;;8.98;4.50;;;;;;;;;;5031263;28;20041;-58
2021/09/25 03:00:19;;;;;;;6.13;3.70;;;;;;;;;;5030583;28;20132;-58
2021/09/25 03:02:46;;;;;;;10.13;3.83;;;;;;;;;;5032562;28;20048;-58
2021/09/25 03:05:13;;;;;;;7.57;4.05;;;;;;;;;;5030893;28;20060;-58
2021/09/25 03:07:40;;;;;;;11.98;4.75;;;;;;;;;;5030813;28;20549;-58
2021/09/25 03:10:06;;;;;;;7.53;3.67;;;;;;;;;;5033024;28;20096;-57
2021/09/25 03:12:33;;;;;;;13.10;4.28;;;;;;;;;;5033341;28;20054;-58
2021/09/25 03:15:00;;;;;;;7.05;3.90;;;;;;;;;;5031611;28;20442;-58
2021/09/25 03:17:26;;;;;;;9.48;3.78;;;;;;;;;;5029061;28;20045;-57
2021/09/25 03:19:52;;;;;;;13.32;4.00;;;;;;;;;;5030256;28;20111;-58
2021/09/25 03:22:19;;;;;;;7.22;3.60;;;;;;;;;;5030160;28;20069;-58
2021/09/25 03:24:45;;;;;;;11.73;4.38;;;;;;;;;;5029764;28;20044;-58
2021/09/25 03:27:12;;;;;;;7.93;4.32;;;;;;;;;;5033387;28;20045;-58
2021/09/25 03:29:38;;;;;;;10.07;4.45;;;;;;;;;;5029882;28;20065;-58
2021/09/25 03:32:04;;;;;;;9.40;4.47;;;;;;;;;;5029593;28;20045;-58
2021/09/25 03:34:31;;;;;;;11.55;4.32;;;;;;;;;;5030330;28;20041;-58
2021/09/25 03:36:57;;;;;;;18.40;5.43;;;;;;;;;;5030366;28;20143;-58
2021/09/25 03:39:23;;;;;;;13.18;5.00;;;;;;;;;;5033545;28;20045;-58
2021/09/25 03:41:50;;;;;;;8.25;4.28;;;;;;;;;;5026621;28;20123;-56
2021/09/25 03:44:16;;;;;;;6.25;3.97;;;;;;;;;;5025700;28;20088;-58
2021/09/25 03:46:42;;;;;;;8.23;4.15;;;;;;;;;;5029968;28;20045;-58
2021/09/25 03:49:09;;;;;;;8.80;4.93;;;;;;;;;;5030212;28;20104;-58
2021/09/25 03:51:35;;;;;;;9.73;4.53;;;;;;;;;;5032451;28;20598;-58
2021/09/25 03:54:01;;;;;;;10.50;5.28;;;;;;;;;;5031595;28;20068;-58
2021/09/25 03:56:27;;;;;;;10.43;5.30;;;;;;;;;;5029781;28;20068;-58
2021/09/25 03:58:54;;;;;;;10.50;5.07;;;;;;;;;;5029887;28;20120;-58
2021/09/25 04:01:20;;;;;;;8.30;5.00;;;;;;;;;;5029744;28;20049;-58
2021/09/25 04:03:46;;;;;;;11.77;4.85;;;;;;;;;;5030617;28;20045;-59
2021/09/25 04:06:13;;;;;;;10.40;5.20;;;;;;;;;;5032915;28;20068;-58
2021/09/25 04:08:39;;;;;;;12.10;5.68;;;;;;;;;;5029873;28;20109;-58
2021/09/25 04:11:05;;;;;;;9.05;4.75;;;;;;;;;;5029646;28;20052;-58
2021/09/25 04:13:32;;;;;;;15.85;5.53;;;;;;;;;;5029502;28;20503;-58
2021/09/25 04:15:58;;;;;;;12.25;5.43;;;;;;;;;;5029536;28;20073;-59
2021/09/25 04:18:24;;;;;;;14.02;5.50;;;;;;;;;;5032408;28;20119;-58
2021/09/25 04:20:51;;;;;;;13.07;5.47;;;;;;;;;;5030436;28;20061;-58
2021/09/25 04:23:17;;;;;;;9.57;5.50;;;;;;;;;;5029318;28;20072;-58
2021/09/25 04:25:43;;;;;;;10.25;4.47;;;;;;;;;;5031108;28;20509;-58
2021/09/25 04:28:10;;;;;;;9.32;4.95;;;;;;;;;;5029040;28;20504;-58
2021/09/25 04:30:36;;;;;;;10.98;5.38;;;;;;;;;;5031644;28;20065;-58
2021/09/25 04:33:03;;;;;;;9.18;5.47;;;;;;;;;;5031155;28;20045;-58
2021/09/25 04:35:29;;;;;;;17.70;6.25;;;;;;;;;;5029110;28;20076;-59
2021/09/25 04:37:56;;;;;;;7.63;4.57;;;;;;;;;;5029370;28;20180;-58
2021/09/25 04:40:23;;;;;;;9.73;5.70;;;;;;;;;;5029306;28;20045;-59
2021/09/25 04:42:49;;;;;;;8.20;5.07;;;;;;;;;;5013896;28;20073;-58
2021/09/25 04:45:15;;;;;;;12.98;5.85;;;;;;;;;;5032533;28;20045;-59
2021/09/25 04:47:43;;;;;;;12.40;5.55;;;;;;;;;;5029209;28;20049;-58
2021/09/25 04:50:10;;;;;;;14.10;6.05;;;;;;;;;;5029074;28;20073;-58
2021/09/25 04:52:36;;;;;;;10.52;5.93;;;;;;;;;;5029074;28;20049;-58
2021/09/25 04:55:03;;;;;;;10.20;5.50;;;;;;;;;;5029283;28;20484;-58
2021/09/25 04:57:30;;;;;;;12.32;5.55;;;;;;;;;;5030918;28;20526;-58
2021/09/25 04:59:56;;;;;;;11.90;5.30;;;;;;;;;;5030627;28;20409;-59
2021/09/25 05:02:22;;;;;;;12.73;5.20;;;;;;;;;;5030622;28;20052;-58
2021/09/25 05:04:49;;;;;;;10.90;5.63;;;;;;;;;;5028833;28;20068;-59
2021/09/25 05:07:15;;;;;;;12.95;5.65;;;;;;;;;;5029271;28;20042;-59
2021/09/25 05:09:41;;;;;;;12.90;6.60;;;;;;;;;;5030391;28;20273;-59
2021/09/25 05:12:08;;;;;;;13.73;6.25;;;;;;;;;;5030980;28;20081;-59
2021/09/25 05:14:34;;;;;;;14.63;6.55;;;;;;;;;;5028784;28;20053;-58
2021/09/25 05:17:01;;;;;;;13.77;6.25;;;;;;;;;;5028825;28;20042;-59
2021/09/25 05:19:27;;;;;;;10.77;5.63;;;;;;;;;;5028580;28;20084;-59
2021/09/25 05:21:54;;;;;;;13.18;6.20;;;;;;;;;;5028734;28;20056;-59
2021/09/25 05:24:20;;;;;;;12.48;4.95;;;;;;;;;;5032585;28;20129;-59
2021/09/25 05:26:47;;;;;;;10.57;5.22;;;;;;;;;;5028585;28;20081;-58
2021/09/25 05:29:13;;;;;;;8.63;5.07;;;;;;;;;;5028769;28;20046;-59
2021/09/25 05:31:40;;;;;;;9.68;5.60;;;;;;;;;;5028657;28;20042;-59
2021/09/25 05:34:06;;;;;;;14.07;5.82;;;;;;;;;;5030274;28;20049;-59
2021/09/25 05:36:32;;;;;;;11.10;6.05;;;;;;;;;;5031137;28;20065;-59
2021/09/25 05:38:58;;;;;;;9.98;5.10;;;;;;;;;;5030341;28;20045;-58
2021/09/25 05:41:25;;;;;;;10.18;5.50;;;;;;;;;;5032252;28;20495;-59
2021/09/25 05:43:53;;;;;;;10.68;5.68;;;;;;;;;;5032431;28;20124;-59
2021/09/25 05:46:20;;;;;;;11.68;5.65;;;;;;;;;;5032419;28;20055;-59
2021/09/25 05:48:48;;;;;;;12.18;5.93;;;;;;;;;;5033487;28;20496;-59
2021/09/25 05:51:15;;;;;;;11.82;5.63;;;;;;;;;;5035635;28;20124;-59
2021/09/25 05:53:41;;;;;;;11.63;5.75;;;;;;;;;;5032028;28;20498;-58
2021/09/25 05:56:07;;;;;;;15.70;6.90;;;;;;;;;;5032006;28;20126;-58
2021/09/25 05:58:33;;;;;;;11.45;5.68;;;;;;;;;;5032117;28;20164;-59
2021/09/25 06:01:00;;;;;;;11.13;5.38;;;;;;;;;;5033595;28;20495;-58
2021/09/25 06:03:26;;;;;;;13.10;5.88;;;;;;;;;;5034947;28;20579;-58
2021/09/25 06:05:52;;;;;;;10.52;5.93;;;;;;;;;;5033276;28;20049;-59
2021/09/25 06:08:18;;;;;;;13.45;6.50;;;;;;;;;;5032162;28;20138;-59
2021/09/25 06:10:45;;;;;;;11.25;7.30;;;;;;;;;;5031679;28;20076;-59
2021/09/25 06:13:11;;;;;;;15.00;6.82;;;;;;;;;;5032174;28;20160;-59
2021/09/25 06:15:38;;;;;;;15.38;7.32;;;;;;;;;;5034087;28;20042;-59
2021/09/25 06:18:04;;;;;;;12.57;6.85;;;;;;;;;;5033564;28;20092;-58
2021/09/25 06:20:31;;;;;;;14.98;6.72;;;;;;;;;;5031717;28;20050;-58
2021/09/25 06:22:57;;;;;;;12.30;6.10;;;;;;;;;;5033846;28;20130;-58
2021/09/25 06:25:23;;;;;;;17.15;7.50;;;;;;;;;;5031451;28;20061;-59
2021/09/25 06:27:50;;;;;;;11.68;7.13;;;;;;;;;;5032373;28;20402;-58
2021/09/25 06:30:16;;;;;;;15.00;6.63;;;;;;;;;;5034921;28;20056;-59
2021/09/25 06:32:43;;;;;;;12.55;6.55;;;;;;;;;;5031252;28;20511;-59
2021/09/25 06:35:10;;;;;;;13.73;7.35;;;;;;;;;;5031631;28;20053;-58
2021/09/25 06:37:37;;;;;;;12.70;6.68;;;;;;;;;;5031349;28;20507;-58
2021/09/25 06:40:05;;;;;;;14.52;6.97;;;;;;;;;;5031356;28;20074;-58
2021/09/25 06:42:31;;;;;;;15.98;7.15;;;;;;;;;;5033157;28;20079;-59
2021/09/25 06:44:57;;;;;;;12.32;6.22;;;;;;;;;;5031530;28;20045;-59
2021/09/25 06:47:24;;;;;;;12.93;6.55;;;;;;;;;;5031475;28;20053;-59
2021/09/25 06:49:50;;;;;;;16.35;7.93;;;;;;;;;;5029738;28;20042;-59
2021/09/25 06:52:16;;;;;;;14.02;6.80;;;;;;;;;;5030477;28;20056;-59
2021/09/25 06:54:43;;;;;;;15.02;7.32;;;;;;;;;;5031050;28;20523;-58
2021/09/25 06:57:10;;;;;;;13.00;6.55;;;;;;;;;;5033005;28;20050;-59
2021/09/25 06:59:37;;;;;;;12.68;7.53;;;;;;;;;;5030237;28;20108;-59
2021/09/25 07:02:04;;;;;;;16.58;8.73;;;;;;;;;;5030216;28;20128;-59
2021/09/25 07:04:30;;;;;;;17.08;6.97;;;;;;;;;;5031010;28;20068;-58
2021/09/25 07:06:56;;;;;;;18.20;8.02;;;;;;;;;;5031096;28;20095;-58
2021/09/25 07:09:23;;;;;;;14.93;7.35;;;;;;;;;;5034104;28;20446;-57
2021/09/25 07:11:49;;;;;;;14.52;7.80;;;;;;;;;;5031386;28;20048;-58
2021/09/25 07:14:16;;;;;;;16.88;8.05;;;;;;;;;;5030825;28;20137;-58
2021/09/25 07:16:42;;;;;;;14.10;7.63;;;;;;;;;;5029878;28;20148;-58
2021/09/25 07:19:09;;;;;;;16.08;7.72;;;;;;;;;;5030729;28;20060;-59
2021/09/25 07:21:36;;;;;;;14.80;7.78;;;;;;;;;;5030897;28;20835;-57
2021/09/25 07:24:02;;;;;;;16.00;6.70;;;;;;;;;;5031490;28;20080;-58
2021/09/25 07:26:29;;;;;;;13.93;7.57;;;;;;;;;;5030398;28;20072;-58
2021/09/25 07:28:55;;;;;;;14.93;7.97;;;;;;;;;;5030375;28;20465;-58
2021/09/25 07:31:22;;;;;;;17.08;7.25;;;;;;;;;;5030091;28;20042;-58
2021/09/25 07:33:48;;;;;;;14.35;7.82;;;;;;;;;;5031056;28;20053;-58
2021/09/25 07:36:14;;;;;;;13.85;7.68;;;;;;;;;;5033382;28;20415;-58
2021/09/25 07:38:41;;;;;;;11.95;7.45;;;;;;;;;;5029925;28;20076;-58
2021/09/25 07:41:07;;;;;;;18.27;9.10;;;;;;;;;;5030199;28;20045;-59
2021/09/25 07:43:34;;;;;;;18.42;9.52;;;;;;;;;;5029928;28;20045;-58
2021/09/25 07:46:00;;;;;;;18.17;9.30;;;;;;;;;;5029884;28;20082;-59
2021/09/25 07:48:27;;;;;;;14.18;9.02;;;;;;;;;;5028999;28;20096;-58
2021/09/25 07:50:53;;;;;;;15.23;8.57;;;;;;;;;;5030452;28;20046;-59
2021/09/25 07:53:20;;;;;;;22.08;9.05;;;;;;;;;;5030279;28;20092;-59
2021/09/25 07:55:46;;;;;;;12.77;6.15;;;;;;;;;;5031369;28;20057;-57
2021/09/25 07:58:12;;;;;;;19.38;8.85;;;;;;;;;;5031362;28;20041;-57
2021/09/25 08:00:39;;;;;;;20.33;9.27;;;;;;;;;;5031784;28;20104;-58
2021/09/25 08:03:05;;;;;;;16.50;9.55;;;;;;;;;;5031320;28;20080;-57
2021/09/25 08:05:32;;;;;;;16.13;9.13;;;;;;;;;;5031134;28;20049;-57
2021/09/25 08:07:58;;;;;;;14.88;7.93;;;;;;;;;;5031048;28;20487;-57
2021/09/25 08:10:24;;;;;;;13.93;7.55;;;;;;;;;;5031097;28;20502;-58
2021/09/25 08:12:50;;;;;;;14.60;7.13;;;;;;;;;;5015591;28;20045;-57
2021/09/25 08:15:17;;;;;;;17.75;8.80;;;;;;;;;;5033344;28;20068;-57
2021/09/25 08:17:45;;;;;;;15.05;10.07;;;;;;;;;;5031339;28;20072;-57
2021/09/25 08:20:13;;;;;;;18.13;9.77;;;;;;;;;;5030715;28;20083;-58
2021/09/25 08:22:40;;;;;;;19.55;10.20;;;;;;;;;;5031243;28;20497;-57
2021/09/25 08:25:07;;;;;;;12.27;7.13;;;;;;;;;;5031364;28;20057;-58
2021/09/25 08:27:33;;;;;;;16.02;9.32;;;;;;;;;;5032045;28;20095;-56
2021/09/25 08:29:59;;;;;;;24.33;11.48;;;;;;;;;;5030528;28;20081;-57
2021/09/25 08:32:26;;;;;;;19.45;11.75;;;;;;;;;;5030039;28;20069;-57
2021/09/25 08:34:52;;;;;;;23.38;12.55;;;;;;;;;;5030883;28;20128;-58
2021/09/25 08:37:18;;;;;;;24.08;12.23;;;;;;;;;;5029910;28;20069;-57
2021/09/25 08:39:44;;;;;;;20.70;11.35;;;;;;;;;;5030868;28;20484;-57
2021/09/25 08:42:12;;;;;;;26.58;12.40;;;;;;;;;;5032844;28;20049;-57
2021/09/25 08:44:40;;;;;;;28.65;14.52;;;;;;;;;;5030837;28;20128;-57
2021/09/25 08:47:06;;;;;;;17.70;10.25;;;;;;;;;;5030800;28;20045;-58
2021/09/25 08:49:32;;;;;;;23.60;13.05;;;;;;;;;;5030602;28;20465;-56
2021/09/25 08:52:00;;;;;;;24.58;11.95;;;;;;;;;;5030908;28;20133;-57
2021/09/25 08:54:26;;;;;;;18.20;11.70;;;;;;;;;;5032124;28;20057;-57
2021/09/25 08:56:53;;;;;;;20.08;12.10;;;;;;;;;;5031553;28;20049;-57
2021/09/25 08:59:19;;;;;;;23.60;13.05;;;;;;;;;;5030495;28;20087;-57
2021/09/25 09:01:46;;;;;;;22.20;12.95;;;;;;;;;;5029500;28;20053;-57
2021/09/25 09:04:12;;;;;;;25.27;14.15;;;;;;;;;;5030721;28;20042;-59
2021/09/25 09:06:39;;;;;;;26.85;14.30;;;;;;;;;;5030683;28;20072;-60
2021/09/25 09:09:09;;;;;;;26.38;13.48;;;;;;;;;;5032496;28;20172;-59
2021/09/25 09:11:43;;;;;;;24.73;13.60;;;;;;;;;;5030586;28;20756;-58
2021/09/25 09:14:13;;;;;;;21.93;12.27;;;;;;;;;;5031448;28;20403;-58
2021/09/25 09:16:39;;;;;;;24.73;12.68;;;;;;;;;;5034755;28;20299;-57
2021/09/25 09:19:05;;;;;;;27.40;12.85;;;;;;;;;;5034206;28;20053;-58
2021/09/25 09:21:32;;;;;;;22.15;13.32;;;;;;;;;;5035593;28;20065;-58
2021/09/25 09:23:59;;;;;;;19.27;12.15;;;;;;;;;;5035755;28;20458;-57
2021/09/25 09:26:34;;;;;;;23.50;13.50;;;;;;;;;;5034593;28;20124;-58
2021/09/25 09:29:00;;;;;;;;;;;;;;;;;;5034728;28;20081;-58
2021/09/25 09:31:26;;;;;;;22.60;12.57;;;;;;;;;;5034264;28;20059;-58
2021/09/25 09:33:54;;;;;;;33.53;12.45;;;;;;;;;;5034446;28;20064;-57
2021/09/25 09:36:26;;;;;;;27.83;12.88;;;;;;;;;;5032327;28;20144;-58
2021/09/25 09:39:18;;;;;;;18.50;11.80;;;;;;;;;;5033232;28;20488;-58
2021/09/25 09:41:46;;;;;;;21.23;12.95;;;;;;;;;;5031014;28;20533;-58
2021/09/25 09:44:23;;;;;;;19.55;12.25;;;;;;;;;;5033137;28;20037;-59
2021/09/25 09:47:00;;;;;;;20.20;12.75;;;;;;;;;;5034075;28;20080;-57
2021/09/25 09:49:28;;;;;;;21.45;11.35;;;;;;;;;;5032785;28;20052;-58
2021/09/25 09:51:54;;;;;;;21.02;12.68;;;;;;;;;;5033429;28;20096;-58
2021/09/25 09:54:20;;;;;;;21.77;11.73;;;;;;;;;;5035407;28;20118;-57
2021/09/25 09:56:47;;;;;;;19.90;11.88;;;;;;;;;;5033300;28;20132;-58
2021/09/25 09:59:14;;;;;;;21.52;11.23;;;;;;;;;;5030245;28;20179;-57
2021/09/25 10:01:41;;;;;;;18.05;10.88;;;;;;;;;;5031523;28;20038;-58
2021/09/25 10:04:08;;;;;;;24.52;12.63;;;;;;;;;;5032119;28;20132;-58
2021/09/25 10:06:38;;;;;;;17.38;10.65;;;;;;;;;;5032581;28;20045;-58
2021/09/25 10:09:12;;;;;;;15.52;8.80;;;;;;;;;;5031826;28;20046;-57
2021/09/25 10:11:40;;;;;;;12.38;8.20;;;;;;;;;;5031546;28;20079;-55
2021/09/25 10:14:07;;;;;;;17.25;9.57;;;;;;;;;;5030476;28;20057;-56
2021/09/25 10:16:34;;;;;;;11.32;7.97;;;;;;;;;;5031712;28;20045;-55
2021/09/25 10:19:02;;;;;;;13.05;7.82;;;;;;;;;;5031426;28;20077;-56
2021/09/25 10:21:29;;;;;;;17.55;7.43;;;;;;;;;;5032650;28;20056;-58
2021/09/25 10:24:00;;;;;;;9.15;5.95;;;;;;;;;;5032366;28;20517;-57
2021/09/25 10:26:28;;;;;;;13.32;6.38;;;;;;;;;;5031189;28;20563;-56
2021/09/25 10:29:01;;;;;;;9.45;6.18;;;;;;;;;;5031374;28;20052;-56
2021/09/25 10:31:28;;;;;;;13.90;7.82;;;;;;;;;;5032104;28;20048;-57
2021/09/25 10:34:14;;;;;;;11.82;6.75;;;;;;;;;;5033561;28;20132;-57
2021/09/25 10:36:42;;;;;;;15.32;6.95;;;;;;;;;;5033341;28;20111;-57
2021/09/25 10:39:23;;;;;;;12.80;7.13;;;;;;;;;;5035043;28;20503;-57
2021/09/25 10:41:50;;;;;;;11.40;7.15;;;;;;;;;;5033592;28;20079;-58
2021/09/25 10:44:23;;;;;;;13.02;6.80;;;;;;;;;;5033176;28;20072;-57
2021/09/25 10:46:50;;;;;;;12.00;7.22;;;;;;;;;;5032935;28;20475;-58
2021/09/25 10:49:16;;;;;;;9.73;6.78;;;;;;;;;;5032930;28;20490;-58
2021/09/25 10:51:42;;;;;;;11.43;7.40;;;;;;;;;;5032687;28;20053;-57
2021/09/25 10:54:13;;;;;;;12.07;7.00;;;;;;;;;;5034950;28;20042;-57
2021/09/25 10:56:46;;;;;;;9.75;6.75;;;;;;;;;;5032922;28;20042;-57
2021/09/25 10:59:13;;;;;;;11.88;6.00;;;;;;;;;;5031695;28;20046;-56
2021/09/25 11:01:41;;;;;;;9.02;5.75;;;;;;;;;;5032506;28;20128;-58
2021/09/25 11:04:12;;;;;;;12.43;5.90;;;;;;;;;;5031448;28;20406;-57
2021/09/25 11:06:58;;;;;;;11.77;6.15;;;;;;;;;;5032997;28;20069;-57
2021/09/25 11:09:27;;;;;;;9.57;6.35;;;;;;;;;;5030506;28;20053;-58
2021/09/25 11:11:54;;;;;;;10.30;6.75;;;;;;;;;;5032008;28;20064;-57
2021/09/25 11:14:26;;;;;;;10.95;7.13;;;;;;;;;;5032491;28;20041;-57
2021/09/25 11:17:00;;;;;;;11.90;8.18;;;;;;;;;;5031127;28;20038;-58
2021/09/25 11:19:28;;;;;;;10.88;7.35;;;;;;;;;;5032171;28;20135;-57
2021/09/25 11:22:06;;;;;;;12.95;7.88;;;;;;;;;;5032558;28;20381;-58
2021/09/25 11:24:34;;;;;;;16.38;8.00;;;;;;;;;;5033277;28;20464;-57
2021/09/25 11:27:01;;;;;;;13.40;6.45;;;;;;;;;;5033813;28;20041;-57
2021/09/25 11:29:28;;;;;;;13.32;7.90;;;;;;;;;;5031843;28;20415;-57
2021/09/25 11:32:05;;;;;;;15.02;7.72;;;;;;;;;;5032364;28;20080;-57
2021/09/25 11:34:31;;;;;;;15.88;8.57;;;;;;;;;;5032243;28;20080;-57
2021/09/25 11:36:59;;;;;;;13.18;8.10;;;;;;;;;;5031343;28;20081;-58
2021/09/25 11:39:34;;;;;;;11.70;7.80;;;;;;;;;;5033382;28;20484;-58
2021/09/25 11:42:16;;;;;;;13.57;8.45;;;;;;;;;;5033655;28;20081;-58
2021/09/25 11:44:47;;;;;;;12.45;7.60;;;;;;;;;;5030302;28;20053;-57
2021/09/25 11:47:32;;;;;;;13.25;7.50;;;;;;;;;;5031930;28;20077;-57
2021/09/25 11:49:58;;;;;;;;;;;;;;;;;;5032344;28;20052;-58
2021/09/25 11:52:24;;;;;;;16.80;5.50;;;;;;;;;;5031937;28;20386;-57
2021/09/25 11:54:51;;;;;;;8.20;4.93;;;;;;;;;;5031701;28;20093;-57
2021/09/25 11:57:19;;;;;;;10.38;6.50;;;;;;;;;;5033736;28;20119;-58
2021/09/25 11:59:46;;;;;;;13.05;6.53;;;;;;;;;;5031403;28;20092;-59
2021/09/25 12:02:32;;;;;;;12.27;6.72;;;;;;;;;;5031712;28;20049;-58
2021/09/25 12:04:58;;;;;;;10.32;7.20;;;;;;;;;;5031530;28;20577;-58
2021/09/25 12:07:38;;;;;;;12.07;6.38;;;;;;;;;;5031538;28;20049;-59
2021/09/25 12:10:05;;;;;;;10.07;6.78;;;;;;;;;;5017577;28;20069;-57
2021/09/25 12:12:31;;;;;;;9.60;6.47;;;;;;;;;;5032567;28;20470;-58
2021/09/25 12:14:58;;;;;;;8.18;5.32;;;;;;;;;;5032515;28;20045;-58
2021/09/25 12:17:26;;;;;;;8.40;5.97;;;;;;;;;;5031277;28;20559;-59
2021/09/25 12:19:52;;;;;;;9.25;5.47;;;;;;;;;;5031144;28;20050;-58
2021/09/25 12:22:19;;;;;;;11.43;4.97;;;;;;;;;;5029908;28;20050;-57
2021/09/25 12:24:47;;;;;;;7.30;4.85;;;;;;;;;;5031177;28;20484;-57
2021/09/25 12:27:25;;;;;;;9.93;4.90;;;;;;;;;;5033108;28;20132;-58
2021/09/25 12:29:51;;;;;;;8.57;4.75;;;;;;;;;;5030100;28;20095;-56
2021/09/25 12:32:20;;;;;;;8.82;5.97;;;;;;;;;;5031165;28;20091;-58
2021/09/25 12:34:50;;;;;;;12.75;6.28;;;;;;;;;;5029562;28;20053;-56
2021/09/25 12:37:17;;;;;;;7.20;5.00;;;;;;;;;;5031085;28;20052;-58
2021/09/25 12:39:44;;;;;;;8.10;5.60;;;;;;;;;;5030926;28;20495;-59
2021/09/25 12:42:21;;;;;;;9.00;6.13;;;;;;;;;;5032745;28;20055;-57
2021/09/25 12:44:52;;;;;;;12.85;5.85;;;;;;;;;;5030716;28;20107;-58
2021/09/25 12:47:28;;;;;;;7.80;5.28;;;;;;;;;;5031020;28;20415;-58
2021/09/25 12:50:11;;;;;;;7.38;5.00;;;;;;;;;;5030627;28;20168;-58
2021/09/25 12:52:37;;;;;;;8.57;5.18;;;;;;;;;;5031265;28;20073;-58
2021/09/25 12:55:07;;;;;;;8.25;5.38;;;;;;;;;;5031068;28;20077;-58
2021/09/25 12:57:33;;;;;;;8.90;5.38;;;;;;;;;;5031226;28;20204;-59
2021/09/25 13:00:01;;;;;;;6.22;4.30;;;;;;;;;;5031914;28;20084;-58
2021/09/25 13:02:31;;;;;;;8.52;5.60;;;;;;;;;;5029388;28;20060;-58
2021/09/25 13:04:58;;;;;;;7.78;4.78;;;;;;;;;;5030475;28;20050;-58
2021/09/25 13:07:29;;;;;;;10.70;5.50;;;;;;;;;;5030673;28;20046;-58
2021/09/25 13:09:59;;;;;;;8.65;5.75;;;;;;;;;;5015301;28;20125;-59
2021/09/25 13:12:32;;;;;;;7.03;5.30;;;;;;;;;;5032080;28;20049;-58
2021/09/25 13:15:06;;;;;;;7.72;5.93;;;;;;;;;;5030344;28;20077;-59
2021/09/25 13:17:34;;;;;;;9.40;5.47;;;;;;;;;;5030308;28;20057;-57
2021/09/25 13:20:01;;;;;;;8.02;5.43;;;;;;;;;;5030330;28;20076;-58
2021/09/25 13:22:28;;;;;;;11.27;5.28;;;;;;;;;;5030566;28;20042;-57
2021/09/25 13:24:56;;;;;;;9.40;5.95;;;;;;;;;;5030275;28;20045;-58
2021/09/25 13:27:23;;;;;;;8.98;5.47;;;;;;;;;;5032510;28;20065;-58
2021/09/25 13:29:49;;;;;;;8.07;5.70;;;;;;;;;;5028952;28;20113;-58
2021/09/25 13:32:15;;;;;;;11.00;6.10;;;;;;;;;;5030466;28;20476;-58
2021/09/25 13:34:42;;;;;;;8.90;5.82;;;;;;;;;;5030455;28;20112;-58
2021/09/25 13:37:09;;;;;;;10.02;5.90;;;;;;;;;;5030624;28;20057;-57
2021/09/25 13:39:35;;;;;;;10.63;5.15;;;;;;;;;;5030774;28;20084;-57
2021/09/25 13:42:01;;;;;;;6.60;4.38;;;;;;;;;;5029899;28;20122;-56
2021/09/25 13:44:28;;;;;;;6.65;4.20;;;;;;;;;;5030551;28;20503;-56
2021/09/25 13:46:54;;;;;;;7.78;5.07;;;;;;;;;;5030289;28;20500;-56
2021/09/25 13:49:21;;;;;;;6.97;4.43;;;;;;;;;;5030218;28;20396;-56
2021/09/25 13:51:47;;;;;;;8.45;5.15;;;;;;;;;;5030262;28;20127;-56
2021/09/25 13:54:14;;;;;;;7.78;5.60;;;;;;;;;;5031802;28;20419;-58
2021/09/25 13:56:40;;;;;;;7.18;4.50;;;;;;;;;;5030344;28;20081;-57
2021/09/25 13:59:07;;;;;;;7.43;4.40;;;;;;;;;;5030146;28;20074;-58
2021/09/25 14:01:34;;;;;;;8.18;5.07;;;;;;;;;;5032766;28;20406;-57
2021/09/25 14:04:02;;;;;;;7.93;4.63;;;;;;;;;;5033957;28;20069;-58
2021/09/25 14:06:28;;;;;;;7.95;4.78;;;;;;;;;;5035289;28;20057;-58
2021/09/25 14:08:54;;;;;;;6.82;4.57;;;;;;;;;;5034171;28;20073;-57
2021/09/25 14:11:21;;;;;;;12.45;4.97;;;;;;;;;;5033642;28;20125;-58
2021/09/25 14:13:47;;;;;;;8.15;4.22;;;;;;;;;;5033680;28;20071;-58
2021/09/25 14:16:13;;;;;;;6.68;4.57;;;;;;;;;;5033743;28;20049;-59
2021/09/25 14:18:41;;;;;;;9.05;5.07;;;;;;;;;;5034282;28;20516;-58
2021/09/25 14:21:08;;;;;;;7.85;5.05;;;;;;;;;;5033675;28;20398;-58
2021/09/25 14:23:34;;;;;;;9.07;5.60;;;;;;;;;;5033173;28;20037;-59
2021/09/25 14:26:01;;;;;;;8.40;5.43;;;;;;;;;;5033491;28;20072;-58
2021/09/25 14:28:27;;;;;;;9.77;5.13;;;;;;;;;;5028955;28;20511;-58
2021/09/25 14:30:53;;;;;;;7.78;4.43;;;;;;;;;;5031888;28;20038;-58
2021/09/25 14:33:20;;;;;;;8.30;4.97;;;;;;;;;;5035029;28;20096;-58
2021/09/25 14:35:46;;;;;;;8.60;5.45;;;;;;;;;;5032161;28;20201;-58